createdAt,value
2022-09-06T00:00:10.430Z,99.90
2022-09-06T00:02:42.164Z,99.90
2022-09-06T00:05:12.238Z,99.90
2022-09-06T00:07:40.739Z,99.90
2022-09-06T00:10:10.193Z,99.90
2022-09-06T00:12:38.948Z,99.90
2022-09-06T00:15:09.527Z,99.90
2022-09-06T00:17:37.776Z,99.90
2022-09-06T00:20:09.106Z,99.90
2022-09-06T00:22:37.487Z,99.90
2022-09-06T00:25:06.534Z,99.90
2022-09-06T00:27:35.418Z,99.90
2022-09-06T00:30:04.885Z,99.90
2022-09-06T00:32:34.477Z,99.90
2022-09-06T00:35:02.691Z,99.90
2022-09-06T00:37:30.870Z,99.90
2022-09-06T00:39:59.125Z,99.90
2022-09-06T00:42:27.390Z,99.90
2022-09-06T00:44:55.775Z,99.90
2022-09-06T00:47:24.013Z,99.90
2022-09-06T00:49:56.082Z,99.90
2022-09-06T00:52:25.399Z,99.90
2022-09-06T00:54:54.891Z,99.90
2022-09-06T00:57:27.001Z,99.90
2022-09-06T00:59:56.761Z,99.90
2022-09-06T01:02:25.263Z,99.90
2022-09-06T01:04:55.848Z,99.90
2022-09-06T01:07:33.172Z,99.90
2022-09-06T01:10:22.799Z,99.90
2022-09-06T01:13:01.595Z,99.90
2022-09-06T01:15:37.248Z,99.90
2022-09-06T01:18:19.959Z,99.90
2022-09-06T01:21:14.681Z,99.90
2022-09-06T01:24:17.493Z,99.90
2022-09-06T01:27:17.011Z,99.90
2022-09-06T01:29:50.208Z,99.90
2022-09-06T01:32:26.295Z,99.90
2022-09-06T01:35:03.670Z,99.90
2022-09-06T01:37:32.063Z,99.90
2022-09-06T01:40:00.308Z,99.90
2022-09-06T01:42:31.632Z,99.90
2022-09-06T01:45:03.500Z,99.90
2022-09-06T01:47:40.391Z,99.90
2022-09-06T01:50:47.119Z,99.90
2022-09-06T01:53:31.058Z,99.90
2022-09-06T01:56:06.276Z,99.90
2022-09-06T01:58:54.824Z,99.90
2022-09-06T02:01:30.913Z,99.90
2022-09-06T02:04:08.172Z,99.90
2022-09-06T02:06:42.514Z,99.90
2022-09-06T02:09:16.064Z,99.90
2022-09-06T02:11:49.682Z,99.90
2022-09-06T02:14:21.820Z,99.90
2022-09-06T02:16:54.863Z,99.90
2022-09-06T02:19:32.695Z,99.90
2022-09-06T02:22:04.414Z,99.90
2022-09-06T02:24:34.619Z,99.90
2022-09-06T02:27:02.872Z,99.90
2022-09-06T02:29:31.130Z,99.90
2022-09-06T02:32:05.551Z,99.90
2022-09-06T02:34:33.978Z,99.90
2022-09-06T02:37:02.516Z,99.90
2022-09-06T02:39:30.737Z,99.90
2022-09-06T02:41:59.819Z,99.90
2022-09-06T02:44:28.011Z,99.90
2022-09-06T02:46:57.295Z,99.90
2022-09-06T02:49:27.085Z,99.90
2022-09-06T02:51:55.255Z,99.90
2022-09-06T02:54:23.462Z,99.90
2022-09-06T02:56:52.389Z,99.90
2022-09-06T02:59:21.006Z,99.90
2022-09-06T03:01:49.208Z,99.90
2022-09-06T03:04:17.418Z,99.90
2022-09-06T03:06:47.009Z,99.90
2022-09-06T03:09:15.224Z,99.90
2022-09-06T03:11:43.742Z,99.90
2022-09-06T03:14:11.952Z,99.90
2022-09-06T03:16:40.198Z,99.90
2022-09-06T03:19:08.425Z,99.90
2022-09-06T03:21:36.588Z,99.90
2022-09-06T03:24:06.420Z,99.90
2022-09-06T03:26:34.644Z,99.90
2022-09-06T03:29:02.816Z,99.90
2022-09-06T03:31:31.140Z,99.90
2022-09-06T03:34:00.035Z,99.90
2022-09-06T03:36:28.212Z,99.90
2022-09-06T03:38:56.392Z,99.90
2022-09-06T03:41:26.019Z,99.90
2022-09-06T03:43:54.166Z,99.90
2022-09-06T03:46:22.337Z,99.90
2022-09-06T03:48:50.972Z,99.90
2022-09-06T03:51:19.086Z,99.90
2022-09-06T03:53:47.430Z,99.90
2022-09-06T03:56:16.278Z,99.90
2022-09-06T03:58:45.805Z,99.90
2022-09-06T04:01:14.335Z,99.90
2022-09-06T04:03:42.924Z,99.90
2022-09-06T04:06:11.427Z,99.90
2022-09-06T04:08:40.392Z,99.90
2022-09-06T04:11:08.616Z,99.90
2022-09-06T04:13:37.373Z,99.90
2022-09-06T04:16:07.756Z,99.90
2022-09-06T04:18:35.969Z,99.90
2022-09-06T04:21:04.143Z,99.90
2022-09-06T04:23:36.393Z,99.90
2022-09-06T04:26:07.478Z,99.90
2022-09-06T04:28:35.604Z,99.90
2022-09-06T04:31:06.229Z,99.90
2022-09-06T04:33:35.802Z,99.90
2022-09-06T04:36:06.088Z,99.90
2022-09-06T04:38:37.592Z,99.90
2022-09-06T04:41:06.250Z,99.90
2022-09-06T04:43:34.619Z,99.90
2022-09-06T04:46:10.375Z,99.90
2022-09-06T04:48:38.594Z,99.90
2022-09-06T04:51:07.104Z,99.90
2022-09-06T04:53:35.254Z,99.90
2022-09-06T04:56:03.898Z,99.90
2022-09-06T04:58:32.166Z,99.90
2022-09-06T05:01:00.397Z,99.90
2022-09-06T05:03:30.076Z,99.90
2022-09-06T05:06:09.539Z,99.90
2022-09-06T05:08:39.262Z,99.90
2022-09-06T05:11:08.250Z,99.90
2022-09-06T05:13:36.798Z,99.90
2022-09-06T05:16:06.859Z,99.90
2022-09-06T05:18:36.643Z,99.90
2022-09-06T05:21:05.263Z,99.90
2022-09-06T05:23:33.372Z,99.90
2022-09-06T05:26:01.555Z,99.90
2022-09-06T05:28:29.860Z,99.90
2022-09-06T05:31:07.602Z,99.90
2022-09-06T05:33:37.567Z,99.90
2022-09-06T05:36:07.128Z,99.90
2022-09-06T05:38:35.320Z,99.90
2022-09-06T05:41:03.574Z,99.90
2022-09-06T05:43:31.839Z,99.90
2022-09-06T05:46:00.393Z,99.90
2022-09-06T05:48:31.219Z,99.90
2022-09-06T05:51:04.735Z,99.90
2022-09-06T05:53:35.972Z,99.90
2022-09-06T05:56:05.446Z,99.90
2022-09-06T05:58:33.695Z,99.90
2022-09-06T06:01:09.239Z,99.90
2022-09-06T06:03:37.598Z,99.90
2022-09-06T06:06:07.690Z,99.90
2022-09-06T06:08:36.750Z,99.90
2022-09-06T06:11:04.931Z,99.90
2022-09-06T06:13:35.006Z,99.90
2022-09-06T06:16:04.372Z,99.90
2022-09-06T06:18:32.644Z,99.90
2022-09-06T06:21:13.910Z,99.90
2022-09-06T06:23:43.431Z,99.90
2022-09-06T06:26:13.165Z,99.90
2022-09-06T06:28:42.051Z,99.90
2022-09-06T06:31:12.109Z,99.90
2022-09-06T06:33:40.847Z,99.90
2022-09-06T06:36:21.923Z,99.90
2022-09-06T06:38:51.736Z,99.90
2022-09-06T06:41:23.839Z,99.90
2022-09-06T06:43:53.391Z,99.90
2022-09-06T06:46:23.274Z,99.90
2022-09-06T06:48:54.648Z,99.90
2022-09-06T06:51:26.583Z,99.90
2022-09-06T06:53:56.747Z,99.90
2022-09-06T06:56:27.120Z,99.90
2022-09-06T06:58:57.455Z,99.90
2022-09-06T07:01:27.837Z,99.90
2022-09-06T07:03:56.798Z,99.90
2022-09-06T07:09:18.104Z,99.90
2022-09-06T07:11:46.589Z,99.90
2022-09-06T07:14:14.732Z,99.90
2022-09-06T07:16:43.613Z,99.90
2022-09-06T07:22:05.269Z,99.90
2022-09-06T07:24:34.189Z,99.90
2022-09-06T07:29:50.676Z,99.90
2022-09-06T07:32:18.859Z,99.90
2022-09-06T07:34:47.452Z,99.90
2022-09-06T07:37:17.320Z,99.90
2022-09-06T07:39:45.662Z,99.90
2022-09-06T07:42:13.927Z,99.90
2022-09-06T07:44:42.108Z,99.90
2022-09-06T07:55:36.506Z,99.90
2022-09-06T07:58:04.757Z,99.90
2022-09-06T08:00:32.953Z,99.90
2022-09-06T08:03:01.247Z,99.90
2022-09-06T08:11:07.617Z,99.90
2022-09-06T08:13:36.032Z,99.90
2022-09-06T08:16:06.288Z,99.90
2022-09-06T08:18:35.378Z,99.90
2022-09-06T08:21:12.846Z,99.70
2022-09-06T08:23:46.327Z,99.90
2022-09-06T08:26:14.672Z,99.60
2022-09-06T08:28:42.913Z,99.90
2022-09-06T08:31:12.992Z,99.90
2022-09-06T08:33:42.225Z,99.90
2022-09-06T08:36:11.906Z,99.90
2022-09-06T08:38:40.317Z,99.90
2022-09-06T08:41:12.476Z,99.60
2022-09-06T08:43:47.655Z,98.80
2022-09-06T08:46:18.405Z,98.30
2022-09-06T08:48:46.784Z,98.10
2022-09-06T08:51:40.063Z,98.10
2022-09-06T08:54:14.703Z,97.50
2022-09-06T08:56:59.831Z,98.10
2022-09-06T08:59:29.794Z,97.60
2022-09-06T09:02:05.892Z,97.70
2022-09-06T09:04:35.861Z,98.10
2022-09-06T09:07:12.717Z,97.30
2022-09-06T09:09:42.047Z,97.10
2022-09-06T09:12:13.864Z,96.40
2022-09-06T09:14:44.320Z,96.70
2022-09-06T09:17:24.436Z,96.70
2022-09-06T09:19:52.684Z,96.50
2022-09-06T09:22:21.320Z,96.90
2022-09-06T09:24:51.848Z,96.70
2022-09-06T09:27:24.192Z,96.40
2022-09-06T09:32:50.103Z,95.60
2022-09-06T09:35:24.877Z,94.80
2022-09-06T09:38:08.101Z,94.40
2022-09-06T09:48:22.491Z,94.60
2022-09-06T10:03:34.266Z,93.70
2022-09-06T10:09:36.429Z,92.10
2022-09-06T10:22:52.208Z,89.60
2022-09-06T10:30:47.005Z,87.50
2022-09-06T10:49:36.853Z,88.10
2022-09-06T11:04:04.139Z,86.30
2022-09-06T11:06:37.959Z,84.90
2022-09-06T11:09:17.930Z,85.80
2022-09-06T11:11:51.907Z,85.80
2022-09-06T11:14:22.097Z,85.90
2022-09-06T11:16:54.727Z,84.00
2022-09-06T11:19:26.658Z,81.80
2022-09-06T11:22:26.303Z,81.50
2022-09-06T11:25:23.842Z,81.90
2022-09-06T11:27:58.130Z,82.00
2022-09-06T11:30:27.632Z,82.30
2022-09-06T11:33:10.382Z,80.30
2022-09-06T11:35:39.011Z,81.20
2022-09-06T11:38:20.556Z,82.10
2022-09-06T11:40:58.504Z,80.30
2022-09-06T11:43:48.545Z,79.70
2022-09-06T11:46:54.272Z,78.80
2022-09-06T11:49:31.884Z,79.70
2022-09-06T11:52:00.492Z,79.70
2022-09-06T11:54:39.040Z,76.60
2022-09-06T11:57:15.883Z,75.80
2022-09-06T11:59:55.016Z,77.20
2022-09-06T12:02:38.083Z,75.90
2022-09-06T12:05:17.397Z,77.90
2022-09-06T12:08:29.112Z,79.90
2022-09-06T12:11:07.519Z,75.70
2022-09-06T12:13:49.193Z,78.10
2022-09-06T12:16:18.727Z,74.00
2022-09-06T12:19:30.741Z,74.90
2022-09-06T12:21:58.997Z,74.80
2022-09-06T12:24:55.932Z,74.30
2022-09-06T12:27:27.095Z,73.50
2022-09-06T12:29:59.470Z,75.80
2022-09-06T12:32:36.615Z,73.70
2022-09-06T12:38:00.104Z,74.00
2022-09-06T12:40:32.530Z,75.00
2022-09-06T12:43:04.480Z,76.60
2022-09-06T12:45:32.976Z,69.80
2022-09-06T12:48:10.193Z,70.20
2022-09-06T12:50:40.436Z,69.90
2022-09-06T12:53:24.451Z,72.60
2022-09-06T12:56:05.553Z,72.00
2022-09-06T12:58:35.662Z,72.60
2022-09-06T13:01:12.335Z,73.60
2022-09-06T13:03:45.651Z,72.30
2022-09-06T13:06:24.461Z,72.60
2022-09-06T13:08:57.112Z,70.00
2022-09-06T13:11:29.335Z,69.60
2022-09-06T13:13:59.843Z,71.60
2022-09-06T13:16:30.860Z,71.10
2022-09-06T13:19:12.584Z,73.10
2022-09-06T13:21:42.386Z,68.00
2022-09-06T13:24:22.111Z,69.80
2022-09-06T13:26:50.534Z,70.20
2022-09-06T13:29:31.394Z,68.90
2022-09-06T13:32:03.448Z,70.60
2022-09-06T13:34:34.417Z,70.20
2022-09-06T13:37:05.153Z,67.00
2022-09-06T13:39:35.696Z,65.80
2022-09-06T13:42:07.287Z,69.30
2022-09-06T13:44:38.710Z,67.50
2022-09-06T13:47:07.627Z,64.80
2022-09-06T13:49:35.854Z,64.20
2022-09-06T13:52:05.414Z,65.40
2022-09-06T13:54:34.251Z,65.40
2022-09-06T13:57:02.833Z,66.80
2022-09-06T13:59:31.523Z,65.30
2022-09-06T14:02:04.839Z,64.50
2022-09-06T14:04:33.148Z,65.60
2022-09-06T14:07:01.720Z,62.50
2022-09-06T14:09:30.218Z,65.10
2022-09-06T14:11:58.512Z,64.50
2022-09-06T14:14:27.063Z,62.80
2022-09-06T14:16:55.276Z,62.70
2022-09-06T14:19:24.939Z,63.60
2022-09-06T14:21:53.509Z,63.70
2022-09-06T14:24:21.827Z,62.80
2022-09-06T14:26:50.087Z,65.50
2022-09-06T14:29:18.323Z,65.00
2022-09-06T14:31:48.350Z,67.10
2022-09-06T14:34:16.645Z,66.70
2022-09-06T14:36:46.364Z,68.90
2022-09-06T14:39:14.659Z,69.70
2022-09-06T14:41:42.920Z,69.10
2022-09-06T14:44:11.428Z,66.10
2022-09-06T14:46:39.748Z,64.30
2022-09-06T14:49:10.100Z,64.50
2022-09-06T14:51:39.757Z,63.80
2022-09-06T14:54:11.573Z,61.90
2022-09-06T14:56:41.966Z,62.00
2022-09-06T14:59:10.844Z,63.00
2022-09-06T15:01:40.307Z,61.50
2022-09-06T15:04:11.283Z,62.60
2022-09-06T15:06:44.822Z,63.60
2022-09-06T15:09:14.807Z,62.20
2022-09-06T15:11:44.922Z,64.50
2022-09-06T15:14:16.145Z,62.60
2022-09-06T15:16:44.637Z,63.80
2022-09-06T15:19:12.945Z,65.00
2022-09-06T15:21:42.011Z,65.00
2022-09-06T15:24:12.235Z,66.20
2022-09-06T15:26:42.816Z,64.20
2022-09-06T15:29:11.903Z,62.80
2022-09-06T15:31:41.861Z,65.00
2022-09-06T15:34:11.434Z,62.30
2022-09-06T15:36:39.635Z,61.30
2022-09-06T15:39:07.840Z,60.90
2022-09-06T15:41:39.697Z,61.80
2022-09-06T15:44:12.271Z,61.30
2022-09-06T15:46:46.090Z,62.10
2022-09-06T15:49:16.283Z,62.60
2022-09-06T15:51:44.803Z,63.50
2022-09-06T15:54:14.444Z,63.40
2022-09-06T15:56:43.144Z,63.20
2022-09-06T15:59:13.247Z,63.50
2022-09-06T16:01:41.889Z,64.10
2022-09-06T16:04:10.901Z,64.40
2022-09-06T16:06:42.457Z,65.20
2022-09-06T16:09:14.064Z,65.10
2022-09-06T16:11:43.191Z,69.60
2022-09-06T16:14:15.362Z,70.10
2022-09-06T16:16:44.718Z,69.10
2022-09-06T16:19:14.061Z,71.70
2022-09-06T16:21:43.721Z,71.10
2022-09-06T16:24:14.406Z,69.90
2022-09-06T16:26:46.171Z,69.80
2022-09-06T16:29:17.929Z,69.60
2022-09-06T16:31:46.758Z,70.90
2022-09-06T16:34:15.623Z,73.50
2022-09-06T16:36:43.848Z,74.00
2022-09-06T16:39:12.187Z,74.50
2022-09-06T16:41:42.886Z,73.20
2022-09-06T16:44:15.986Z,72.00
2022-09-06T16:46:45.873Z,72.70
2022-09-06T16:49:16.705Z,74.10
2022-09-06T16:51:45.326Z,75.40
2022-09-06T16:54:13.949Z,76.50
2022-09-06T16:56:42.536Z,76.80
2022-09-06T16:59:11.943Z,76.50
2022-09-06T17:01:41.928Z,77.70
2022-09-06T17:04:12.770Z,77.30
2022-09-06T17:06:44.384Z,77.50
2022-09-06T17:09:14.282Z,77.30
2022-09-06T17:11:42.740Z,77.90
2022-09-06T17:14:10.961Z,77.70
2022-09-06T17:16:57.012Z,79.40
2022-09-06T17:19:26.832Z,79.80
2022-09-06T17:21:55.215Z,80.10
2022-09-06T17:24:23.492Z,80.90
2022-09-06T17:26:51.724Z,82.20
2022-09-06T17:29:20.442Z,82.70
2022-09-06T17:31:49.538Z,83.20
2022-09-06T17:34:17.846Z,83.20
2022-09-06T17:36:47.408Z,83.50
2022-09-06T17:39:18.505Z,82.90
2022-09-06T17:41:49.824Z,82.60
2022-09-06T17:44:22.190Z,84.10
2022-09-06T17:49:39.334Z,85.50
2022-09-06T17:52:09.051Z,85.30
2022-09-06T17:54:37.280Z,84.80
2022-09-06T17:57:05.587Z,84.50
2022-09-06T17:59:35.815Z,84.60
2022-09-06T18:02:05.351Z,85.80
2022-09-06T18:04:33.745Z,85.70
2022-09-06T18:07:02.138Z,86.30
2022-09-06T18:09:31.724Z,86.50
2022-09-06T18:11:59.940Z,87.10
2022-09-06T18:14:29.072Z,87.70
2022-09-06T18:16:57.710Z,89.20
2022-09-06T18:19:27.479Z,89.50
2022-09-06T18:21:57.146Z,90.00
2022-09-06T18:24:25.499Z,90.10
2022-09-06T18:26:55.381Z,90.30
2022-09-06T18:29:23.753Z,90.40
2022-09-06T18:31:53.535Z,90.80
2022-09-06T18:34:22.107Z,91.00
2022-09-06T18:36:50.291Z,91.10
2022-09-06T18:39:19.110Z,91.40
2022-09-06T18:42:06.851Z,91.90
2022-09-06T19:10:25.141Z,93.00
2022-09-06T19:12:54.123Z,93.30
2022-09-06T19:15:22.788Z,93.60
2022-09-06T19:17:52.405Z,93.80
2022-09-06T19:20:21.726Z,93.90
2022-09-06T19:22:51.311Z,94.10
2022-09-06T19:25:19.903Z,94.30
2022-09-06T19:27:49.596Z,94.60
2022-09-06T19:45:25.783Z,95.70
2022-09-06T19:48:44.965Z,95.80
2022-09-06T19:51:14.536Z,96.10
2022-09-06T19:53:44.222Z,96.20
2022-09-06T19:56:13.452Z,96.50
2022-09-06T19:58:43.642Z,96.80
2022-09-06T20:01:17.996Z,97.10
2022-09-06T20:03:46.433Z,97.30
2022-09-06T20:06:14.663Z,97.50
2022-09-06T20:08:43.083Z,97.60
2022-09-06T20:11:13.055Z,97.70
2022-09-06T20:13:42.763Z,97.90
2022-09-06T20:16:14.936Z,97.80
2022-09-06T20:18:43.505Z,97.80
2022-09-06T20:21:13.806Z,97.70
2022-09-06T20:23:42.157Z,97.20
2022-09-06T20:26:13.476Z,97.00
2022-09-06T20:28:42.012Z,96.90
2022-09-06T20:31:13.052Z,97.00
2022-09-06T20:33:43.755Z,96.70
2022-09-06T20:36:15.339Z,96.40
2022-09-06T20:38:44.913Z,95.60
2022-09-06T20:41:15.384Z,95.60
2022-09-06T20:43:44.335Z,95.60
2022-09-06T20:46:15.421Z,95.50
2022-09-06T20:48:45.396Z,95.50
2022-09-06T20:51:15.914Z,95.50
2022-09-06T20:53:44.076Z,95.50
2022-09-06T20:56:13.951Z,95.50
2022-09-06T20:58:42.853Z,95.70
2022-09-06T21:01:16.567Z,95.80
2022-09-06T21:03:44.875Z,96.10
2022-09-06T21:06:13.392Z,96.40
2022-09-06T21:08:42.998Z,97.00
2022-09-06T21:11:11.888Z,97.60
2022-09-06T21:13:40.796Z,98.00
2022-09-06T21:16:09.174Z,98.20
2022-09-06T21:18:39.419Z,98.10
2022-09-06T21:21:08.900Z,98.20
2022-09-06T21:23:38.501Z,98.70
2022-09-06T21:26:09.943Z,98.90
2022-09-06T21:28:40.647Z,99.90
2022-09-06T21:31:11.771Z,99.90
2022-09-06T21:33:43.537Z,99.90
2022-09-06T21:36:13.684Z,99.90
2022-09-06T21:38:43.870Z,99.90
2022-09-06T21:41:13.472Z,99.90
2022-09-06T21:43:42.484Z,99.90
2022-09-06T21:46:12.477Z,99.90
2022-09-06T21:48:43.952Z,99.90
2022-09-06T21:51:14.163Z,99.90
2022-09-06T21:53:43.818Z,99.90
2022-09-06T21:56:12.504Z,99.90
2022-09-06T21:58:41.356Z,99.90
2022-09-06T22:01:09.706Z,99.90
2022-09-06T22:03:40.251Z,99.90
2022-09-06T22:06:14.348Z,99.90
2022-09-06T22:08:43.729Z,99.90
2022-09-06T22:11:13.949Z,99.90
2022-09-06T22:13:42.918Z,99.90
2022-09-06T22:16:11.882Z,99.90
2022-09-06T22:18:40.247Z,99.90
2022-09-06T22:21:10.619Z,99.90
2022-09-06T22:23:40.890Z,99.90
2022-09-06T22:26:10.939Z,99.90
2022-09-06T22:28:40.276Z,99.90
2022-09-06T22:31:09.327Z,99.90
2022-09-06T22:33:37.755Z,99.90
2022-09-06T22:36:07.388Z,99.90
2022-09-06T22:38:35.656Z,99.90
2022-09-06T22:41:05.427Z,99.90
2022-09-06T22:43:33.750Z,99.90
2022-09-06T22:46:06.768Z,99.90
2022-09-06T22:48:35.384Z,99.90
2022-09-06T22:51:04.675Z,99.90
2022-09-06T22:53:33.517Z,99.90
2022-09-06T22:56:02.383Z,99.90
2022-09-06T22:58:32.155Z,99.90
2022-09-06T23:01:07.549Z,99.90
2022-09-06T23:03:36.119Z,99.90
2022-09-06T23:06:04.740Z,99.90
2022-09-06T23:08:33.774Z,99.90
2022-09-06T23:11:06.818Z,99.90
2022-09-06T23:13:36.967Z,99.90
2022-09-06T23:16:06.892Z,99.90
2022-09-06T23:18:35.345Z,99.90
2022-09-06T23:21:08.054Z,99.90
2022-09-06T23:23:36.896Z,99.90
2022-09-06T23:26:06.908Z,99.90
2022-09-06T23:28:36.829Z,99.90
2022-09-06T23:31:05.883Z,99.90
2022-09-06T23:33:37.355Z,99.90
2022-09-06T23:36:07.300Z,99.90
2022-09-06T23:38:36.525Z,99.90
2022-09-06T23:41:05.545Z,99.90
2022-09-06T23:43:34.069Z,99.90
2022-09-06T23:46:03.788Z,99.90
2022-09-06T23:48:32.223Z,99.90
2022-09-06T23:51:00.829Z,99.90
2022-09-06T23:53:29.529Z,99.90
2022-09-06T23:55:57.709Z,99.90
2022-09-06T23:58:26.244Z,99.90
